createdAt,value
2018-05-29T00:02:20.363Z,79.70
2018-05-29T00:04:47.805Z,81.00
2018-05-29T00:07:15.239Z,79.50
2018-05-29T00:09:42.682Z,82.10
2018-05-29T00:12:10.125Z,81.60
2018-05-29T00:14:37.566Z,81.50
2018-05-29T00:17:05.011Z,81.10
2018-05-29T00:19:33.218Z,81.50
2018-05-29T00:22:00.651Z,81.50
2018-05-29T00:24:28.854Z,79.90
2018-05-29T00:26:56.289Z,79.80
2018-05-29T00:29:23.735Z,81.10
2018-05-29T00:31:51.935Z,81.10
2018-05-29T00:34:19.391Z,81.10
2018-05-29T00:36:46.826Z,82.20
2018-05-29T00:39:15.028Z,83.80
2018-05-29T00:41:42.470Z,83.80
2018-05-29T00:44:09.907Z,84.00
2018-05-29T00:46:38.129Z,85.60
2018-05-29T00:49:05.555Z,85.60
2018-05-29T00:51:33.004Z,85.30
2018-05-29T00:54:01.205Z,86.80
2018-05-29T00:56:28.655Z,86.80
2018-05-29T00:58:56.087Z,86.70
2018-05-29T01:01:24.296Z,86.40
2018-05-29T01:03:51.727Z,86.40
2018-05-29T01:06:19.939Z,87.50
2018-05-29T01:08:47.378Z,87.40
2018-05-29T01:11:14.814Z,87.80
2018-05-29T01:13:43.016Z,88.40
2018-05-29T01:16:10.458Z,88.30
2018-05-29T01:18:37.900Z,88.00
2018-05-29T01:21:06.114Z,88.50
2018-05-29T01:23:33.541Z,88.40
2018-05-29T01:26:00.990Z,88.80
2018-05-29T01:28:29.192Z,89.50
2018-05-29T01:30:56.635Z,89.60
2018-05-29T01:33:24.075Z,89.80
2018-05-29T01:35:52.293Z,88.40
2018-05-29T01:38:19.725Z,88.30
2018-05-29T01:40:47.171Z,86.60
2018-05-29T01:43:15.371Z,86.00
2018-05-29T01:45:42.811Z,86.10
2018-05-29T01:48:10.248Z,87.30
2018-05-29T01:50:38.455Z,85.40
2018-05-29T01:53:05.887Z,85.40
2018-05-29T01:55:34.103Z,85.80
2018-05-29T01:58:01.535Z,85.70
2018-05-29T02:00:28.979Z,86.20
2018-05-29T02:02:57.180Z,84.90
2018-05-29T02:05:24.632Z,84.80
2018-05-29T02:07:52.075Z,84.40
2018-05-29T02:10:19.527Z,84.20
2018-05-29T02:12:47.726Z,83.50
2018-05-29T02:15:15.235Z,83.50
2018-05-29T02:17:42.630Z,84.00
2018-05-29T02:20:10.072Z,84.60
2018-05-29T02:22:38.279Z,83.80
2018-05-29T02:25:05.707Z,83.70
2018-05-29T02:27:33.146Z,83.20
2018-05-29T02:30:01.347Z,85.10
2018-05-29T02:32:28.795Z,85.10
2018-05-29T02:34:56.999Z,83.80
2018-05-29T02:37:24.443Z,83.60
2018-05-29T02:39:51.893Z,83.90
2018-05-29T02:42:19.334Z,83.80
2018-05-29T02:44:47.541Z,84.90
2018-05-29T02:47:14.992Z,84.90
2018-05-29T02:49:42.423Z,85.10
2018-05-29T02:52:10.630Z,84.50
2018-05-29T02:54:38.066Z,84.50
2018-05-29T02:57:05.515Z,84.20
2018-05-29T02:59:33.706Z,85.30
2018-05-29T03:02:01.158Z,85.20
2018-05-29T03:04:28.593Z,83.60
2018-05-29T03:06:56.804Z,80.10
2018-05-29T03:09:24.239Z,80.00
2018-05-29T03:11:52.496Z,78.70
2018-05-29T03:14:19.891Z,78.70
2018-05-29T03:16:47.339Z,78.00
2018-05-29T03:19:14.770Z,78.50
2018-05-29T03:21:42.982Z,77.00
2018-05-29T03:24:11.254Z,77.00
2018-05-29T03:26:38.700Z,76.60
2018-05-29T03:29:06.130Z,77.00
2018-05-29T03:31:34.351Z,77.00
2018-05-29T03:34:01.783Z,77.00
2018-05-29T03:36:29.227Z,77.30
2018-05-29T03:38:57.431Z,76.10
2018-05-29T03:41:24.878Z,76.10
2018-05-29T03:43:52.308Z,77.20
2018-05-29T03:46:19.749Z,77.10
2018-05-29T03:48:47.184Z,77.20
2018-05-29T03:51:14.630Z,76.80
2018-05-29T03:53:42.068Z,77.60
2018-05-29T03:56:09.503Z,77.40
2018-05-29T03:58:37.710Z,76.90
2018-05-29T04:01:05.147Z,76.80
2018-05-29T04:03:33.354Z,76.70
2018-05-29T04:06:00.801Z,76.70
2018-05-29T04:08:28.242Z,76.40
2018-05-29T04:10:55.682Z,76.60
2018-05-29T04:13:23.903Z,76.50
2018-05-29T04:15:51.365Z,76.40
2018-05-29T04:18:18.779Z,76.40
2018-05-29T04:20:46.978Z,76.30
2018-05-29T04:23:14.418Z,76.20
2018-05-29T04:25:41.855Z,76.20
2018-05-29T04:28:10.063Z,77.70
2018-05-29T04:30:37.502Z,77.70
2018-05-29T04:33:04.950Z,77.60
2018-05-29T04:35:33.159Z,76.50
2018-05-29T04:38:00.601Z,76.30
2018-05-29T04:40:28.034Z,77.40
2018-05-29T04:42:56.243Z,76.60
2018-05-29T04:45:23.676Z,76.50
2018-05-29T04:47:51.887Z,76.90
2018-05-29T04:50:19.321Z,76.80
2018-05-29T04:52:46.761Z,77.10
2018-05-29T04:55:14.960Z,78.10
2018-05-29T04:57:42.407Z,78.00
2018-05-29T05:00:09.843Z,78.20
2018-05-29T05:02:38.123Z,79.60
2018-05-29T05:05:05.914Z,79.60
2018-05-29T05:07:33.352Z,78.50
2018-05-29T05:10:01.552Z,77.10
2018-05-29T05:12:28.994Z,77.00
2018-05-29T05:14:56.435Z,77.40
2018-05-29T05:17:24.654Z,76.10
2018-05-29T05:19:52.074Z,76.00
2018-05-29T05:22:19.529Z,76.00
2018-05-29T05:24:47.729Z,75.40
2018-05-29T05:27:15.175Z,75.40
2018-05-29T05:29:42.613Z,75.80
2018-05-29T05:32:10.818Z,74.50
2018-05-29T05:34:38.252Z,74.40
2018-05-29T05:37:06.450Z,75.70
2018-05-29T05:39:33.901Z,75.70
2018-05-29T05:42:01.334Z,76.00
2018-05-29T05:44:29.543Z,76.10
2018-05-29T05:46:56.973Z,76.00
2018-05-29T05:49:24.419Z,75.70
2018-05-29T05:51:52.626Z,75.70
2018-05-29T05:54:20.065Z,75.60
2018-05-29T05:56:47.498Z,75.70
2018-05-29T05:59:15.717Z,77.00
2018-05-29T06:01:43.155Z,76.80
2018-05-29T06:04:10.604Z,75.90
2018-05-29T06:06:38.808Z,75.30
2018-05-29T06:09:06.256Z,75.30
2018-05-29T06:11:33.682Z,75.40
2018-05-29T06:14:01.890Z,75.90
2018-05-29T06:16:29.327Z,75.80
2018-05-29T06:18:57.539Z,76.40
2018-05-29T06:21:24.977Z,76.40
2018-05-29T06:23:52.424Z,76.90
2018-05-29T06:26:19.854Z,77.10
2018-05-29T06:28:48.072Z,77.60
2018-05-29T06:31:15.504Z,77.50
2018-05-29T06:33:43.710Z,76.40
2018-05-29T06:36:11.143Z,76.40
2018-05-29T06:38:38.587Z,76.20
2018-05-29T06:41:06.801Z,76.50
2018-05-29T06:43:34.235Z,76.40
2018-05-29T06:46:01.670Z,78.00
2018-05-29T06:48:29.882Z,77.50
2018-05-29T06:50:57.311Z,77.40
2018-05-29T06:53:25.526Z,76.50
2018-05-29T06:55:52.964Z,76.50
2018-05-29T06:58:20.406Z,78.50
2018-05-29T07:00:47.839Z,77.90
2018-05-29T07:03:15.282Z,77.90
2018-05-29T07:05:42.715Z,77.30
2018-05-29T07:08:10.157Z,77.30
2018-05-29T07:10:37.602Z,76.70
2018-05-29T07:13:05.053Z,76.30
2018-05-29T07:15:32.485Z,77.20
2018-05-29T07:18:00.686Z,78.60
2018-05-29T07:20:28.129Z,78.40
2018-05-29T07:22:56.359Z,80.80
2018-05-29T07:25:23.790Z,80.80
2018-05-29T07:27:51.222Z,80.40
2018-05-29T07:30:18.671Z,80.40
2018-05-29T07:32:46.872Z,80.10
2018-05-29T07:35:14.325Z,80.10
2018-05-29T07:37:41.755Z,81.10
2018-05-29T07:40:09.965Z,80.80
2018-05-29T07:42:37.394Z,80.80
2018-05-29T07:45:05.610Z,80.20
2018-05-29T07:47:33.040Z,80.10
2018-05-29T07:50:00.479Z,80.10
2018-05-29T07:55:02.626Z,80.80
2018-05-29T07:57:30.061Z,81.00
2018-05-29T07:59:57.506Z,79.00
2018-05-29T08:02:24.947Z,80.30
2018-05-29T08:04:52.390Z,80.10
2018-05-29T08:07:20.596Z,83.20
2018-05-29T08:09:48.044Z,82.60
2018-05-29T08:12:15.478Z,81.70
2018-05-29T08:14:43.685Z,78.80
2018-05-29T08:17:11.121Z,77.90
2018-05-29T08:19:39.337Z,79.60
2018-05-29T08:22:06.761Z,79.50
2018-05-29T08:24:34.214Z,78.60
2018-05-29T08:27:02.814Z,78.70
2018-05-29T08:29:30.247Z,78.60
2018-05-29T08:31:58.464Z,79.50
2018-05-29T08:34:25.907Z,79.50
2018-05-29T08:36:53.339Z,80.60
2018-05-29T08:39:20.839Z,81.20
2018-05-29T08:41:49.007Z,81.30
2018-05-29T08:44:16.450Z,81.30
2018-05-29T08:46:43.881Z,80.00
2018-05-29T08:49:12.097Z,79.90
2018-05-29T08:51:39.533Z,79.90
2018-05-29T08:54:06.977Z,79.70
2018-05-29T08:56:34.415Z,79.80
2018-05-29T08:59:02.618Z,80.60
2018-05-29T09:01:30.062Z,80.50
2018-05-29T09:03:58.277Z,82.20
2018-05-29T09:06:25.723Z,82.10
2018-05-29T09:08:53.162Z,80.60
2018-05-29T09:11:20.607Z,80.80
2018-05-29T09:13:48.810Z,81.80
2018-05-29T09:16:16.250Z,81.60
2018-05-29T09:18:43.684Z,81.40
2018-05-29T09:21:11.899Z,80.80
2018-05-29T09:23:39.327Z,80.70
2018-05-29T09:26:07.600Z,81.40
2018-05-29T09:28:34.985Z,81.40
2018-05-29T09:31:02.426Z,81.80
2018-05-29T09:33:29.891Z,82.40
2018-05-29T09:35:57.346Z,81.50
2018-05-29T09:38:24.773Z,81.70
2018-05-29T09:40:52.219Z,81.40
2018-05-29T09:43:19.658Z,81.80
2018-05-29T09:45:47.132Z,81.20
2018-05-29T09:48:14.582Z,81.10
2018-05-29T09:50:41.987Z,81.60
2018-05-29T09:53:09.418Z,82.00
2018-05-29T09:55:37.635Z,82.60
2018-05-29T09:58:05.071Z,82.60
2018-05-29T10:00:38.283Z,82.90
2018-05-29T10:03:05.719Z,82.30
2018-05-29T10:05:33.162Z,81.60
2018-05-29T10:08:01.376Z,82.80
2018-05-29T10:10:28.822Z,82.70
2018-05-29T10:12:56.254Z,83.30
2018-05-29T10:15:24.465Z,83.70
2018-05-29T10:17:51.902Z,83.60
2018-05-29T10:20:19.342Z,82.40
2018-05-29T10:22:47.542Z,80.70
2018-05-29T10:25:14.990Z,80.70
2018-05-29T10:27:42.421Z,81.20
2018-05-29T10:30:10.634Z,83.30
2018-05-29T10:32:38.066Z,83.30
2018-05-29T10:35:06.287Z,80.60
2018-05-29T10:37:33.726Z,80.40
2018-05-29T10:40:01.164Z,79.30
2018-05-29T10:42:29.367Z,79.40
2018-05-29T10:44:56.803Z,79.30
2018-05-29T10:47:24.250Z,78.10
2018-05-29T10:49:51.682Z,79.60
2018-05-29T10:52:19.123Z,78.80
2018-05-29T10:54:46.562Z,79.60
2018-05-29T10:57:14.001Z,79.60
2018-05-29T10:59:41.435Z,78.00
2018-05-29T11:02:08.877Z,78.60
2018-05-29T11:04:37.071Z,80.70
2018-05-29T11:07:04.510Z,80.70
2018-05-29T11:09:32.710Z,77.50
2018-05-29T11:12:00.154Z,76.80
2018-05-29T11:14:27.595Z,75.80
2018-05-29T11:16:55.033Z,75.40
2018-05-29T11:19:22.468Z,75.20
2018-05-29T11:21:49.920Z,76.20
2018-05-29T11:24:17.351Z,76.30
2018-05-29T11:26:44.793Z,76.80
2018-05-29T11:29:12.990Z,74.10
2018-05-29T11:31:40.451Z,74.00
2018-05-29T11:34:07.893Z,73.00
2018-05-29T11:36:35.331Z,72.40
2018-05-29T11:39:03.535Z,71.60
2018-05-29T11:41:30.978Z,71.50
2018-05-29T11:43:58.411Z,67.10
2018-05-29T11:46:26.624Z,67.60
2018-05-29T11:48:54.062Z,67.60
2018-05-29T11:51:22.269Z,69.50
2018-05-29T11:53:49.706Z,69.40
2018-05-29T11:56:17.151Z,67.60
2018-05-29T11:58:44.586Z,70.60
2018-05-29T12:01:12.794Z,70.80
2018-05-29T12:03:40.229Z,70.70
2018-05-29T12:06:08.435Z,70.90
2018-05-29T12:08:35.881Z,70.80
2018-05-29T12:11:03.372Z,71.90
2018-05-29T12:13:30.762Z,71.20
2018-05-29T12:15:58.986Z,72.40
2018-05-29T12:18:26.419Z,71.70
2018-05-29T12:20:53.851Z,70.80
2018-05-29T12:23:21.285Z,70.60
2018-05-29T12:25:48.729Z,69.90
2018-05-29T12:28:16.170Z,69.20
2018-05-29T12:30:43.602Z,68.60
2018-05-29T12:33:11.048Z,68.30
2018-05-29T12:35:39.248Z,69.30
2018-05-29T12:38:06.691Z,69.30
2018-05-29T12:40:34.130Z,67.90
2018-05-29T12:43:02.334Z,67.90
2018-05-29T12:45:29.767Z,67.90
2018-05-29T12:47:58.375Z,68.60
2018-05-29T12:50:25.807Z,68.60
2018-05-29T12:52:54.022Z,69.10
2018-05-29T12:55:21.454Z,69.10
2018-05-29T12:57:48.906Z,67.60
2018-05-29T13:00:16.346Z,67.10
2018-05-29T13:02:43.796Z,68.10
2018-05-29T13:05:11.227Z,66.60
2018-05-29T13:07:38.760Z,67.60
2018-05-29T13:10:06.181Z,68.00
2018-05-29T13:12:34.396Z,67.30
2018-05-29T13:15:01.888Z,67.30
2018-05-29T13:17:29.274Z,67.00
2018-05-29T13:19:57.474Z,67.70
2018-05-29T13:22:24.918Z,67.60
2018-05-29T13:24:52.355Z,67.70
2018-05-29T13:27:20.567Z,66.90
2018-05-29T13:29:48.002Z,66.90
2018-05-29T13:32:16.211Z,66.80
2018-05-29T13:34:43.655Z,66.80
2018-05-29T13:37:11.103Z,66.70
2018-05-29T13:39:38.532Z,67.20
2018-05-29T13:42:06.746Z,66.50
2018-05-29T13:44:34.179Z,66.50
2018-05-29T13:47:01.635Z,67.20
2018-05-29T13:49:29.834Z,67.60
2018-05-29T13:51:57.279Z,67.50
2018-05-29T13:54:24.719Z,67.50
2018-05-29T13:56:52.919Z,67.40
2018-05-29T13:59:20.362Z,67.40
2018-05-29T14:01:47.799Z,66.70
2018-05-29T14:04:16.012Z,68.20
2018-05-29T14:06:43.442Z,68.20
2018-05-29T14:09:11.666Z,66.90
2018-05-29T14:11:39.096Z,66.90
2018-05-29T14:14:06.538Z,66.00
2018-05-29T14:16:33.979Z,67.00
2018-05-29T14:19:02.195Z,66.60
2018-05-29T14:21:29.634Z,66.60
2018-05-29T14:23:57.082Z,66.60
2018-05-29T14:26:25.282Z,65.80
2018-05-29T14:28:52.721Z,65.80
2018-05-29T14:31:20.224Z,65.60
2018-05-29T14:33:48.435Z,67.20
2018-05-29T14:36:16.656Z,65.80
2018-05-29T14:38:44.103Z,65.90
2018-05-29T14:41:11.531Z,64.70
2018-05-29T14:43:39.783Z,63.80
2018-05-29T14:46:07.181Z,63.80
2018-05-29T14:48:34.627Z,64.00
2018-05-29T14:51:02.070Z,65.40
2018-05-29T14:53:30.276Z,65.00
2018-05-29T14:55:57.718Z,64.90
2018-05-29T14:58:25.161Z,65.30
2018-05-29T15:00:53.354Z,64.20
2018-05-29T15:03:20.798Z,64.10
2018-05-29T15:05:49.006Z,63.90
2018-05-29T15:08:16.454Z,63.80
2018-05-29T15:10:43.891Z,63.30
2018-05-29T15:13:11.333Z,63.10
2018-05-29T15:15:39.537Z,63.70
2018-05-29T15:18:06.983Z,63.70
2018-05-29T15:20:34.419Z,62.60
2018-05-29T15:23:01.868Z,63.00
2018-05-29T15:25:29.299Z,61.70
2018-05-29T15:27:56.887Z,61.60
2018-05-29T15:30:24.332Z,61.50
2018-05-29T15:32:51.775Z,60.30
2018-05-29T15:35:19.226Z,60.60
2018-05-29T15:37:46.659Z,60.90
2018-05-29T15:40:14.103Z,60.90
2018-05-29T15:42:41.533Z,61.10
2018-05-29T15:45:09.749Z,63.70
2018-05-29T15:47:37.200Z,62.80
2018-05-29T15:50:04.633Z,62.40
2018-05-29T15:52:32.839Z,61.60
2018-05-29T15:55:00.278Z,61.60
2018-05-29T15:57:27.716Z,61.80
2018-05-29T15:59:55.939Z,63.70
2018-05-29T16:02:23.362Z,63.60
2018-05-29T16:04:51.571Z,63.60
2018-05-29T16:07:19.009Z,63.60
2018-05-29T16:09:46.446Z,64.50
2018-05-29T16:12:14.653Z,62.70
2018-05-29T16:14:42.098Z,62.60
2018-05-29T16:17:09.539Z,64.60
2018-05-29T16:19:37.750Z,62.30
2018-05-29T16:22:05.191Z,62.30
2018-05-29T16:24:32.635Z,64.00
2018-05-29T16:27:00.070Z,63.10
2018-05-29T16:29:28.275Z,64.20
2018-05-29T16:31:55.719Z,64.20
2018-05-29T16:34:23.930Z,63.90
2018-05-29T16:36:51.366Z,63.80
2018-05-29T16:39:18.815Z,64.40
2018-05-29T16:41:46.246Z,62.40
2018-05-29T16:44:14.456Z,63.20
2018-05-29T16:46:41.892Z,63.00
2018-05-29T16:49:10.108Z,63.40
2018-05-29T16:51:37.549Z,63.40
2018-05-29T16:54:04.987Z,64.00
2018-05-29T16:56:33.194Z,65.10
2018-05-29T16:59:00.632Z,65.00
2018-05-29T17:01:28.066Z,65.30
2018-05-29T17:03:56.277Z,66.40
2018-05-29T17:06:23.720Z,66.40
2018-05-29T17:08:51.164Z,66.30
2018-05-29T17:11:18.607Z,66.60
2018-05-29T17:13:46.811Z,67.30
2018-05-29T17:16:14.251Z,67.20
2018-05-29T17:18:41.685Z,67.00
2018-05-29T17:21:09.125Z,67.50
2018-05-29T17:23:36.568Z,66.70
2018-05-29T17:26:04.011Z,65.40
2018-05-29T17:28:31.448Z,65.30
2018-05-29T17:30:58.895Z,64.40
2018-05-29T17:33:26.326Z,65.60
2018-05-29T17:35:53.770Z,68.70
2018-05-29T17:38:21.256Z,67.60
2018-05-29T17:40:48.653Z,66.40
2018-05-29T17:43:16.091Z,66.90
2018-05-29T17:45:43.532Z,67.00
2018-05-29T17:48:11.730Z,68.20
2018-05-29T17:50:39.185Z,68.10
2018-05-29T17:53:06.609Z,67.70
2018-05-29T17:55:34.821Z,69.00
2018-05-29T17:58:02.252Z,68.80
2018-05-29T18:00:30.468Z,68.40
2018-05-29T18:02:57.904Z,68.40
2018-05-29T18:05:25.342Z,68.40
2018-05-29T18:07:52.778Z,69.60
2018-05-29T18:10:20.221Z,70.00
2018-05-29T18:12:47.661Z,70.20
2018-05-29T18:15:15.110Z,70.00
2018-05-29T18:17:42.539Z,69.40
2018-05-29T18:20:09.983Z,68.80
2018-05-29T18:22:38.187Z,69.70
2018-05-29T18:25:05.635Z,69.70
2018-05-29T18:27:33.071Z,69.20
2018-05-29T18:30:01.285Z,68.20
2018-05-29T18:32:28.719Z,68.10
2018-05-29T18:34:56.158Z,65.40
2018-05-29T18:37:24.360Z,66.90
2018-05-29T18:39:51.807Z,66.80
2018-05-29T18:42:19.241Z,67.00
2018-05-29T18:44:47.468Z,69.10
2018-05-29T18:47:14.909Z,68.90
2018-05-29T18:49:42.769Z,69.10
2018-05-29T18:52:10.211Z,69.60
2018-05-29T18:54:37.642Z,70.80
2018-05-29T18:57:05.864Z,70.40
2018-05-29T18:59:33.294Z,70.80
2018-05-29T19:02:01.506Z,68.40
2018-05-29T19:04:28.946Z,68.40
2018-05-29T19:06:56.476Z,67.70
2018-05-29T19:09:23.896Z,66.80
2018-05-29T19:11:51.339Z,66.60
2018-05-29T19:14:18.776Z,66.60
2018-05-29T19:16:46.224Z,66.60
2018-05-29T19:19:13.663Z,67.00
2018-05-29T19:21:41.901Z,69.20
2018-05-29T19:24:09.323Z,69.20
2018-05-29T19:26:36.775Z,69.60
2018-05-29T19:29:04.222Z,69.50
2018-05-29T19:31:31.663Z,70.10
2018-05-29T19:33:59.864Z,72.50
2018-05-29T19:36:27.306Z,72.50
2018-05-29T19:38:55.527Z,72.40
2018-05-29T19:41:22.975Z,72.40
2018-05-29T19:43:50.410Z,74.50
2018-05-29T19:46:17.854Z,73.20
2018-05-29T19:48:45.287Z,72.10
2018-05-29T19:51:12.774Z,72.00
2018-05-29T19:53:40.166Z,71.40
2018-05-29T19:56:07.611Z,71.40
2018-05-29T19:58:35.045Z,71.00
2018-05-29T20:01:02.499Z,70.90
2018-05-29T20:03:30.735Z,71.60
2018-05-29T20:05:58.181Z,72.20
2018-05-29T20:08:25.615Z,72.20
2018-05-29T20:10:53.059Z,71.60
2018-05-29T20:13:20.492Z,71.20
2018-05-29T20:15:48.716Z,71.00
2018-05-29T20:18:16.152Z,70.90
2018-05-29T20:20:43.587Z,71.00
2018-05-29T20:23:11.030Z,70.80
2018-05-29T20:25:39.231Z,71.90
2018-05-29T20:28:06.681Z,71.80
2018-05-29T20:30:34.109Z,71.00
2018-05-29T20:33:01.559Z,70.60
2018-05-29T20:35:28.986Z,70.80
2018-05-29T20:37:56.431Z,71.10
2018-05-29T20:40:23.866Z,70.80
2018-05-29T20:42:51.333Z,71.40
2018-05-29T20:45:18.762Z,72.00
2018-05-29T20:47:46.971Z,72.20
2018-05-29T20:50:14.412Z,72.90
2018-05-29T20:52:41.855Z,71.20
2018-05-29T20:55:10.062Z,72.10
2018-05-29T20:57:37.515Z,72.10
2018-05-29T21:00:04.954Z,72.80
2018-05-29T21:02:32.398Z,74.30
2018-05-29T21:05:00.600Z,73.90
2018-05-29T21:07:28.043Z,73.80
2018-05-29T21:09:55.481Z,74.40
2018-05-29T21:12:23.718Z,76.80
2018-05-29T21:14:51.155Z,76.70
2018-05-29T21:17:18.599Z,77.30
2018-05-29T21:19:46.030Z,77.10
2018-05-29T21:22:14.279Z,77.60
2018-05-29T21:24:41.702Z,77.50
2018-05-29T21:27:09.153Z,76.40
2018-05-29T21:29:36.582Z,77.40
2018-05-29T21:32:04.798Z,77.40
2018-05-29T21:34:32.232Z,77.40
2018-05-29T21:36:59.671Z,77.80
2018-05-29T21:39:27.884Z,78.40
2018-05-29T21:41:55.322Z,78.30
2018-05-29T21:44:22.754Z,79.00
2018-05-29T21:46:50.963Z,75.00
2018-05-29T21:49:18.403Z,74.80
2018-05-29T21:51:45.839Z,73.90
2018-05-29T21:54:13.278Z,73.30
2018-05-29T21:56:40.711Z,73.90
2018-05-29T21:59:08.159Z,74.60
2018-05-29T22:01:35.596Z,74.80
2018-05-29T22:04:03.933Z,74.30
2018-05-29T22:06:31.370Z,74.00
2018-05-29T22:08:58.817Z,74.80
2018-05-29T22:11:26.259Z,76.00
2018-05-29T22:13:53.703Z,76.70
2018-05-29T22:16:21.140Z,76.20
2018-05-29T22:18:49.348Z,76.00
2018-05-29T22:21:16.784Z,76.00
2018-05-29T22:23:44.231Z,77.40
2018-05-29T22:26:12.426Z,77.70
2018-05-29T22:28:39.873Z,77.50
2018-05-29T22:31:07.307Z,75.70
2018-05-29T22:33:35.519Z,77.00
2018-05-29T22:36:02.968Z,77.00
2018-05-29T22:38:30.393Z,75.00
2018-05-29T22:40:58.617Z,74.60
2018-05-29T22:43:26.057Z,74.60
2018-05-29T22:45:53.509Z,74.40
2018-05-29T22:48:20.937Z,74.20
2018-05-29T22:50:48.385Z,74.40
2018-05-29T22:53:15.819Z,74.70
2018-05-29T22:55:43.262Z,75.30
2018-05-29T22:58:10.697Z,76.40
2018-05-29T23:00:38.141Z,77.20
2018-05-29T23:03:06.359Z,78.70
2018-05-29T23:05:33.841Z,78.70
2018-05-29T23:08:01.270Z,79.30
2018-05-29T23:10:29.449Z,77.20
2018-05-29T23:12:56.883Z,77.00
2018-05-29T23:15:24.327Z,76.90
2018-05-29T23:17:51.757Z,75.70
2018-05-29T23:20:19.981Z,75.90
2018-05-29T23:22:47.397Z,75.60
2018-05-29T23:25:15.616Z,76.80
2018-05-29T23:27:43.055Z,76.80
2018-05-29T23:30:10.499Z,76.20
2018-05-29T23:32:38.694Z,77.10
2018-05-29T23:35:06.138Z,77.10
2018-05-29T23:37:33.582Z,76.40
2018-05-29T23:40:01.787Z,76.00
2018-05-29T23:42:29.228Z,76.00
2018-05-29T23:44:56.684Z,76.20
2018-05-29T23:47:24.878Z,76.30
2018-05-29T23:49:52.365Z,76.30
2018-05-29T23:52:19.773Z,76.60
2018-05-29T23:54:47.204Z,76.00
2018-05-29T23:57:14.656Z,76.00
2018-05-29T23:59:42.096Z,77.70
